Řízení letového provozu České republiky
Letiste: LKCV Aktualizace: 17.02.2019 01:00:06  UTC
 METAR LKCV 17.02. 01:00 ...
METAR LKCV 170100Z 15003KT CAVOK M01/M02 Q1027 NOSIG RMK BLU BLU=
 TAF LKCV 16.02. 23:00 ...
TAF LKCV 162300Z 1700/1800 VRB02KT 7000 NSC      TEMPO 1702/1707 3000 BR      PROB30 TEMPO 1703/1707 0800 FZFG      BECMG 1710/1712 CAVOK      BECMG 1720/1722 18002KT 5000 BR NSC=